Time;durP1;ratioP1;P1;durP2;ratioP2;P2;SDS_P1;SDS_P2;PMS_P1;PMS_P2;Temp;Humidity;BMP_temperature;BMP_pressure;BME280_temperature;BME280_humidity;BME280_pressure;Samples;Min_cycle;Max_cycle;Signal;HPM_P1;HPM_P2
2022/11/07 00:01:51;;;;;;;6.30;3.10;;;10.50;79.30;;;;;;5029205;28;20461;-66
2022/11/07 00:04:19;;;;;;;7.03;3.90;;;10.50;79.30;;;;;;5028089;28;20554;-66
2022/11/07 00:06:47;;;;;;;7.33;3.70;;;10.60;79.30;;;;;;5027751;28;20459;-66
2022/11/07 00:09:15;;;;;;;5.60;3.40;;;10.60;79.30;;;;;;5032222;28;20836;-66
2022/11/07 00:11:43;;;;;;;7.07;3.50;;;10.60;79.20;;;;;;5031562;28;20456;-66
2022/11/07 00:14:12;;;;;;;8.00;3.13;;;10.60;79.20;;;;;;5031012;28;20480;-66
2022/11/07 00:16:41;;;;;;;8.60;4.03;;;10.60;79.10;;;;;;5030362;28;20495;-66
2022/11/07 00:19:09;;;;;;;6.00;3.40;;;10.60;79.20;;;;;;5026297;28;20463;-66
2022/11/07 00:21:38;;;;;;;6.37;3.17;;;10.60;79.10;;;;;;5029913;28;20514;-65
2022/11/07 00:24:07;;;;;;;5.50;3.27;;;10.60;79.30;;;;;;5029805;28;20550;-67
2022/11/07 00:26:36;;;;;;;6.27;3.20;;;10.60;79.30;;;;;;5029135;28;20500;-68
2022/11/07 00:29:06;;;;;;;5.30;2.80;;;10.70;79.40;;;;;;5028430;28;20459;-66
2022/11/07 00:31:34;;;;;;;5.70;2.73;;;10.70;79.40;;;;;;5030552;28;20658;-66
2022/11/07 00:34:03;;;;;;;4.90;2.37;;;10.70;79.50;;;;;;5027414;28;21373;-69
2022/11/07 00:36:31;;;;;;;4.20;2.10;;;10.70;79.60;;;;;;5027513;28;20475;-65
2022/11/07 00:38:59;;;;;;;9.47;2.77;;;10.80;79.60;;;;;;5025709;28;20527;-66
2022/11/07 00:41:28;;;;;;;5.80;2.80;;;10.80;79.70;;;;;;5028848;28;20521;-67
2022/11/07 00:43:56;;;;;;;6.20;2.40;;;10.80;79.80;;;;;;5026898;28;20456;-67
2022/11/07 00:46:25;;;;;;;6.70;2.40;;;10.80;79.80;;;;;;5019225;28;20488;-65
2022/11/07 00:48:53;;;;;;;7.00;2.57;;;10.90;79.90;;;;;;5031266;28;20517;-68
2022/11/07 00:51:24;;;;;;;8.03;2.87;;;10.90;80.00;;;;;;5029585;28;20513;-65
2022/11/07 00:53:53;;;;;;;6.07;2.57;;;10.90;80.20;;;;;;5033016;28;20822;-66
2022/11/07 00:56:23;;;;;;;6.13;2.73;;;10.90;80.30;;;;;;5028444;28;20779;-65
2022/11/07 00:58:54;;;;;;;5.17;2.57;;;10.90;80.40;;;;;;5032706;28;20459;-66
2022/11/07 01:01:25;;;;;;;6.40;2.80;;;11.00;80.50;;;;;;5025939;28;20459;-65
2022/11/07 01:06:42;;;;;;;5.40;2.80;;;11.00;80.50;;;;;;5029207;28;20475;-65
2022/11/07 01:09:12;;;;;;;6.00;3.10;;;11.10;80.60;;;;;;5016456;28;20457;-65
2022/11/07 01:11:41;;;;;;;10.10;3.00;;;11.00;80.60;;;;;;5020363;28;21002;-65
2022/11/07 01:14:10;;;;;;;5.83;2.67;;;11.10;80.70;;;;;;5038407;28;20472;-66
2022/11/07 01:16:38;;;;;;;7.10;3.10;;;11.10;80.60;;;;;;5024531;28;21034;-66
2022/11/07 01:19:07;;;;;;;6.07;3.13;;;11.10;80.70;;;;;;5024323;28;20513;-65
2022/11/07 01:21:38;;;;;;;6.37;3.07;;;11.10;80.70;;;;;;5023647;28;20463;-66
2022/11/07 01:24:08;;;;;;;5.17;3.20;;;11.10;80.80;;;;;;5025203;28;20475;-66
2022/11/07 01:26:37;;;;;;;7.60;4.37;;;11.10;80.70;;;;;;5013548;28;20483;-66
2022/11/07 01:29:05;;;;;;;6.63;3.27;;;11.10;80.70;;;;;;5022379;28;21091;-65
2022/11/07 01:31:34;;;;;;;6.67;3.53;;;11.10;80.70;;;;;;5024979;28;20467;-65
2022/11/07 01:34:02;;;;;;;5.83;3.10;;;11.10;80.70;;;;;;5030101;28;21017;-66
2022/11/07 01:36:30;;;;;;;5.73;3.20;;;11.10;80.80;;;;;;5026287;28;20480;-66
2022/11/07 01:39:00;;;;;;;8.40;3.83;;;11.10;80.80;;;;;;5023146;28;20463;-65
2022/11/07 01:41:30;;;;;;;7.57;3.63;;;11.10;80.80;;;;;;5021752;28;20857;-67
2022/11/07 01:44:01;;;;;;;6.20;3.50;;;11.10;80.80;;;;;;5025697;28;20474;-66
2022/11/07 01:46:32;;;;;;;7.10;3.23;;;11.10;80.90;;;;;;5025389;28;20495;-66
2022/11/07 01:49:06;;;;;;;7.70;3.53;;;11.10;80.90;;;;;;5022335;28;20455;-66
2022/11/07 01:51:40;;;;;;;6.80;3.37;;;11.10;80.90;;;;;;5026119;28;20464;-65
2022/11/07 01:54:12;;;;;;;7.13;3.80;;;11.10;80.90;;;;;;5032624;28;20471;-66
2022/11/07 01:56:44;;;;;;;6.97;3.17;;;11.10;81.00;;;;;;5024285;28;20477;-64
2022/11/07 01:59:18;;;;;;;7.50;3.90;;;11.10;81.00;;;;;;5024919;28;20463;-65
2022/11/07 02:01:49;;;;;;;6.67;3.03;;;11.10;81.10;;;;;;5027073;28;21299;-68
2022/11/07 02:04:19;;;;;;;7.20;3.53;;;11.10;81.20;;;;;;5027382;28;20841;-68
2022/11/07 02:06:52;;;;;;;7.03;3.53;;;11.10;81.30;;;;;;5025983;28;20455;-66
2022/11/07 02:09:21;;;;;;;7.97;3.63;;;11.10;81.40;;;;;;5026597;28;20454;-67
2022/11/07 02:11:49;;;;;;;9.00;4.00;;;11.20;81.50;;;;;;5026331;28;20522;-67
2022/11/07 02:14:18;;;;;;;8.73;3.40;;;11.20;81.50;;;;;;5023415;28;20475;-68
2022/11/07 02:16:46;;;;;;;11.00;4.80;;;11.20;81.60;;;;;;5024624;28;20452;-66
2022/11/07 02:19:24;;;;;;;6.33;3.90;;;11.20;81.70;;;;;;5027866;28;20455;-66
2022/11/07 02:21:57;;;;;;;15.80;4.37;;;11.20;81.80;;;;;;5025984;28;20641;-66
2022/11/07 02:24:30;;;;;;;8.30;3.97;;;11.30;81.90;;;;;;5030188;28;20668;-66
2022/11/07 02:27:00;;;;;;;10.93;4.53;;;11.30;81.90;;;;;;5025778;28;21003;-67
2022/11/07 02:29:30;;;;;;;7.90;3.97;;;11.30;82.00;;;;;;5023888;28;20515;-68
2022/11/07 02:32:02;;;;;;;7.37;3.70;;;11.30;82.00;;;;;;5022358;28;20467;-68
2022/11/07 02:34:30;;;;;;;7.97;3.77;;;11.30;82.10;;;;;;5024717;28;20859;-67
2022/11/07 02:36:59;;;;;;;10.30;3.70;;;11.30;82.20;;;;;;5024982;28;20549;-67
2022/11/07 02:39:29;;;;;;;7.50;3.83;;;11.30;82.20;;;;;;5024316;28;20513;-67
2022/11/07 02:41:59;;;;;;;9.37;3.77;;;11.40;82.40;;;;;;5026585;28;20466;-67
2022/11/07 02:44:30;;;;;;;8.70;3.70;;;11.40;82.30;;;;;;5029420;28;20462;-67
2022/11/07 02:46:58;;;;;;;9.73;3.83;;;11.40;82.40;;;;;;5029425;28;20471;-67
2022/11/07 02:49:26;;;;;;;6.80;3.50;;;11.40;82.40;;;;;;5031958;28;20940;-67
2022/11/07 02:51:54;;;;;;;9.47;4.40;;;11.40;82.50;;;;;;5026816;28;20518;-67
2022/11/07 02:54:22;;;;;;;5.37;3.40;;;11.40;82.50;;;;;;5026555;28;20483;-67
2022/11/07 02:56:52;;;;;;;8.50;4.53;;;11.50;82.50;;;;;;5029860;28;20447;-68
2022/11/07 02:59:20;;;;;;;7.93;3.93;;;11.50;82.50;;;;;;5030270;28;20459;-67
2022/11/07 03:01:53;;;;;;;10.63;4.30;;;11.50;82.70;;;;;;5028933;28;20862;-67
2022/11/07 03:04:22;;;;;;;8.03;3.80;;;11.50;82.70;;;;;;5029665;28;20501;-67
2022/11/07 03:06:51;;;;;;;7.97;3.83;;;11.50;82.80;;;;;;5025336;28;20960;-67
2022/11/07 03:09:19;;;;;;;9.87;4.70;;;11.50;82.90;;;;;;5027682;28;20453;-67
2022/11/07 03:11:47;;;;;;;7.90;4.13;;;11.50;82.90;;;;;;5027520;28;21067;-67
2022/11/07 03:14:16;;;;;;;8.17;3.93;;;11.50;83.00;;;;;;5027456;28;20455;-67
2022/11/07 03:16:44;;;;;;;10.80;4.03;;;11.50;83.00;;;;;;5031387;28;20478;-67
2022/11/07 03:19:12;;;;;;;11.23;3.50;;;11.50;83.10;;;;;;5029222;28;20525;-67
2022/11/07 03:21:40;;;;;;;8.10;3.90;;;11.60;83.20;;;;;;5030103;28;20581;-67
2022/11/07 03:24:08;;;;;;;6.70;3.77;;;11.60;83.20;;;;;;5030482;28;20454;-67
2022/11/07 03:26:36;;;;;;;8.97;3.37;;;11.60;83.20;;;;;;5028727;28;20546;-68
2022/11/07 03:29:04;;;;;;;7.27;4.23;;;11.60;83.30;;;;;;5030320;28;20972;-67
2022/11/07 03:31:34;;;;;;;6.27;3.90;;;11.60;83.30;;;;;;5029071;28;20462;-67
2022/11/07 03:34:02;;;;;;;8.33;4.03;;;11.60;83.30;;;;;;5028581;28;20466;-67
2022/11/07 03:36:30;;;;;;;10.50;3.70;;;11.60;83.40;;;;;;5027766;28;20488;-68
2022/11/07 03:38:58;;;;;;;6.93;3.70;;;11.60;83.40;;;;;;5026769;28;20471;-67
2022/11/07 03:41:26;;;;;;;8.20;3.57;;;11.60;83.40;;;;;;5028971;28;20977;-67
2022/11/07 03:43:54;;;;;;;10.03;3.90;;;11.60;83.40;;;;;;5027678;28;20462;-68
2022/11/07 03:46:22;;;;;;;6.93;3.27;;;11.60;83.50;;;;;;5025034;28;20965;-67
2022/11/07 03:48:51;;;;;;;7.60;3.50;;;11.60;83.60;;;;;;5029137;28;20456;-68
2022/11/07 03:51:19;;;;;;;8.30;2.87;;;11.70;83.60;;;;;;5022821;28;21027;-67
2022/11/07 03:53:47;;;;;;;6.43;3.40;;;11.70;83.60;;;;;;5025797;28;20447;-66
2022/11/07 03:56:15;;;;;;;6.40;2.90;;;11.70;83.60;;;;;;5031118;28;20544;-66
2022/11/07 03:58:43;;;;;;;6.50;3.30;;;11.70;83.70;;;;;;5023227;28;20467;-66
2022/11/07 04:01:12;;;;;;;9.57;3.13;;;11.70;83.50;;;;;;5023205;28;20506;-67
2022/11/07 04:03:40;;;;;;;7.47;3.10;;;11.70;83.50;;;;;;5029669;28;20816;-67
2022/11/07 04:06:09;;;;;;;8.07;3.10;;;11.70;83.50;;;;;;5033027;28;20478;-66
2022/11/07 04:08:37;;;;;;;5.40;3.10;;;11.70;83.40;;;;;;5024957;28;20440;-67
2022/11/07 04:11:06;;;;;;;10.00;3.50;;;11.70;83.60;;;;;;5028668;28;21079;-68
2022/11/07 04:19:05;;;;;;;6.93;2.90;;;11.60;83.80;;;;;;5027550;28;20467;-66
2022/11/07 04:21:34;;;;;;;6.13;3.00;;;11.70;83.80;;;;;;5027336;28;20496;-67
2022/11/07 04:24:02;;;;;;;8.60;3.20;;;11.60;83.70;;;;;;5027527;28;20464;-65
2022/11/07 04:29:16;;;;;;;7.90;3.20;;;11.60;83.70;;;;;;5030787;28;20460;-65
2022/11/07 04:31:43;;;;;;;6.50;3.17;;;11.60;83.80;;;;;;5025631;28;20483;-67
2022/11/07 04:34:11;;;;;;;7.07;3.00;;;11.60;83.80;;;;;;5026596;28;20471;-67
2022/11/07 04:36:41;;;;;;;10.30;3.67;;;11.60;83.80;;;;;;5029061;28;20541;-67
2022/11/07 04:39:09;;;;;;;7.80;3.03;;;11.60;83.80;;;;;;5028795;28;20460;-65
2022/11/07 04:41:37;;;;;;;5.53;3.20;;;11.60;83.70;;;;;;5027499;28;20475;-66
2022/11/07 04:44:05;;;;;;;7.60;3.00;;;11.60;83.70;;;;;;5029741;28;20989;-65
2022/11/07 04:46:33;;;;;;;6.70;3.10;;;11.60;83.70;;;;;;5028546;28;21175;-65
2022/11/07 04:49:01;;;;;;;7.43;2.93;;;11.60;83.80;;;;;;5024990;28;20546;-66
2022/11/07 04:51:29;;;;;;;6.60;2.60;;;11.50;83.80;;;;;;5027633;28;20456;-65
2022/11/07 04:53:59;;;;;;;7.33;2.87;;;11.60;83.80;;;;;;5028064;28;20470;-66
2022/11/07 04:56:27;;;;;;;6.83;2.77;;;11.60;83.80;;;;;;5027911;28;20486;-66
2022/11/07 04:59:01;;;;;;;5.37;2.83;;;11.60;83.80;;;;;;5026796;28;21141;-66
2022/11/07 05:01:29;;;;;;;8.03;3.10;;;11.60;83.80;;;;;;5029960;28;20456;-65
2022/11/07 05:03:57;;;;;;;6.53;2.63;;;11.60;83.90;;;;;;5025800;28;20456;-65
2022/11/07 05:06:25;;;;;;;7.33;2.70;;;11.50;83.90;;;;;;5028324;28;20479;-66
2022/11/07 05:08:53;;;;;;;4.80;2.33;;;11.50;84.00;;;;;;5025909;28;20520;-67
2022/11/07 05:11:22;;;;;;;7.00;2.70;;;11.60;84.00;;;;;;5027570;28;20444;-67
2022/11/07 05:13:50;;;;;;;9.77;3.60;;;11.60;84.00;;;;;;5023081;28;20448;-66
2022/11/07 05:16:18;;;;;;;10.00;2.93;;;11.60;84.00;;;;;;5026296;28;20494;-66
2022/11/07 05:18:46;;;;;;;9.70;2.53;;;11.60;84.00;;;;;;5026802;28;20467;-68
2022/11/07 05:21:14;;;;;;;7.37;3.00;;;11.60;84.10;;;;;;5029365;28;20467;-65
2022/11/07 05:23:43;;;;;;;7.37;2.70;;;11.60;84.10;;;;;;5026749;28;20469;-66
2022/11/07 05:26:10;;;;;;;5.97;2.90;;;11.70;84.10;;;;;;5026793;28;20537;-65
2022/11/07 05:28:40;;;;;;;6.43;2.77;;;11.60;84.00;;;;;;5028610;28;20463;-65
2022/11/07 05:31:09;;;;;;;8.30;2.50;;;11.70;84.10;;;;;;5024745;28;20463;-65
2022/11/07 05:33:37;;;;;;;7.97;2.47;;;11.60;84.10;;;;;;5023968;28;20463;-65
2022/11/07 05:36:15;;;;;;;11.43;2.77;;;11.70;84.10;;;;;;5022946;28;20488;-66
2022/11/07 05:38:45;;;;;;;6.37;2.47;;;11.70;84.10;;;;;;5028616;28;20457;-66
2022/11/07 05:41:14;;;;;;;8.60;2.60;;;11.70;84.20;;;;;;5034022;28;20460;-67
2022/11/07 05:43:44;;;;;;;7.03;2.23;;;11.70;84.20;;;;;;5023915;28;20852;-67
2022/11/07 05:46:12;;;;;;;8.67;2.20;;;11.70;84.00;;;;;;5026395;28;20483;-65
2022/11/07 05:48:40;;;;;;;6.70;2.50;;;11.70;84.20;;;;;;5029352;28;20502;-67
2022/11/07 05:51:08;;;;;;;7.90;2.47;;;11.70;84.00;;;;;;5025798;28;21029;-65
2022/11/07 05:53:36;;;;;;;6.77;2.60;;;11.70;84.20;;;;;;5022857;28;20490;-66
2022/11/07 05:56:05;;;;;;;7.60;2.50;;;11.70;84.20;;;;;;5023798;28;20557;-65
2022/11/07 05:58:33;;;;;;;10.80;2.60;;;11.70;84.20;;;;;;5023996;28;21185;-65
2022/11/07 06:01:03;;;;;;;5.10;2.63;;;11.70;84.20;;;;;;5025484;28;20871;-65
2022/11/07 06:03:31;;;;;;;9.97;2.43;;;11.70;84.20;;;;;;5023982;28;21093;-66
2022/11/07 06:05:59;;;;;;;11.23;2.40;;;11.70;84.00;;;;;;5028231;28;20809;-65
2022/11/07 06:08:27;;;;;;;5.97;2.43;;;11.70;84.20;;;;;;5027692;28;20455;-66
2022/11/07 06:10:55;;;;;;;5.97;2.20;;;11.70;84.00;;;;;;5022502;28;20449;-65
2022/11/07 06:13:23;;;;;;;7.70;2.90;;;11.70;84.20;;;;;;5022718;28;20474;-67
2022/11/07 06:15:51;;;;;;;6.50;2.40;;;11.70;84.20;;;;;;5020893;28;20559;-66
2022/11/07 06:18:21;;;;;;;5.40;2.63;;;11.70;84.20;;;;;;5031946;28;20971;-66
2022/11/07 06:20:49;;;;;;;8.40;2.47;;;11.70;84.30;;;;;;5035543;28;20471;-66
2022/11/07 06:23:18;;;;;;;8.17;2.83;;;11.70;84.20;;;;;;5015202;28;20515;-66
2022/11/07 06:25:47;;;;;;;7.03;3.23;;;11.70;84.30;;;;;;5024249;28;20476;-66
2022/11/07 06:28:15;;;;;;;16.47;3.03;;;11.80;84.20;;;;;;5027331;28;20467;-66
2022/11/07 06:30:44;;;;;;;7.10;2.90;;;11.80;84.30;;;;;;5029982;28;20460;-66
2022/11/07 06:33:14;;;;;;;5.10;2.50;;;11.80;84.20;;;;;;5023698;28;20459;-66
2022/11/07 06:35:45;;;;;;;5.97;2.50;;;11.80;84.30;;;;;;5025602;28;20476;-66
2022/11/07 06:38:15;;;;;;;10.60;2.60;;;11.80;84.30;;;;;;5021286;28;20461;-66
2022/11/07 06:40:43;;;;;;;6.97;2.60;;;11.80;84.30;;;;;;5021502;28;20465;-68
2022/11/07 06:43:13;;;;;;;6.63;2.73;;;11.80;84.40;;;;;;5024942;28;20478;-66
2022/11/07 06:45:43;;;;;;;6.37;2.30;;;11.80;84.40;;;;;;5027332;28;20458;-66
2022/11/07 06:48:12;;;;;;;7.87;2.67;;;11.80;84.40;;;;;;5023050;28;20459;-66
2022/11/07 06:50:41;;;;;;;7.43;2.60;;;11.90;84.40;;;;;;5021281;28;20452;-66
2022/11/07 06:53:11;;;;;;;6.30;2.40;;;11.90;84.40;;;;;;5024144;28;20526;-65
2022/11/07 06:55:40;;;;;;;5.53;2.10;;;11.90;84.40;;;;;;5022841;28;20482;-66
2022/11/07 06:58:09;;;;;;;9.03;2.40;;;11.90;84.40;;;;;;5025658;28;21130;-67
2022/11/07 07:00:37;;;;;;;7.40;2.30;;;11.90;84.50;;;;;;5023631;28;21264;-69
2022/11/07 07:03:05;;;;;;;6.80;2.43;;;11.90;84.60;;;;;;5021054;28;20463;-68
2022/11/07 07:05:34;;;;;;;8.10;2.20;;;11.90;84.50;;;;;;5023097;28;20479;-66
2022/11/07 07:08:03;;;;;;;7.87;2.47;;;12.00;84.50;;;;;;5023331;28;20461;-67
2022/11/07 07:10:36;;;;;;;5.73;1.80;;;12.00;84.50;;;;;;5022128;28;20485;-66
2022/11/07 07:13:04;;;;;;;7.07;2.10;;;12.00;84.50;;;;;;5023548;28;20506;-67
2022/11/07 07:15:32;;;;;;;8.33;2.10;;;12.00;84.40;;;;;;5022271;28;20525;-67
2022/11/07 07:18:17;;;;;;;7.80;2.40;;;12.00;84.40;;;;;;5020595;28;20493;-67
2022/11/07 07:20:45;;;;;;;6.77;2.07;;;12.10;84.40;;;;;;5022195;28;20461;-66
2022/11/07 07:23:13;;;;;;;6.97;2.57;;;12.10;84.60;;;;;;5019911;28;20445;-69
2022/11/07 07:25:43;;;;;;;8.03;1.80;;;12.10;84.50;;;;;;5025714;28;20483;-67
2022/11/07 07:28:11;;;;;;;8.53;2.20;;;12.20;84.40;;;;;;5020487;28;20463;-68
2022/11/07 07:30:39;;;;;;;8.77;1.90;;;12.10;84.40;;;;;;5025601;28;21299;-68
2022/11/07 07:33:07;;;;;;;4.20;1.43;;;12.20;84.50;;;;;;5024777;28;20459;-68
2022/11/07 07:35:35;;;;;;;12.53;2.10;;;12.20;84.50;;;;;;5026843;28;20525;-69
2022/11/07 07:38:03;;;;;;;6.33;1.63;;;12.20;84.50;;;;;;5029202;28;20476;-68
2022/11/07 07:40:31;;;;;;;12.00;2.20;;;12.30;84.50;;;;;;5029664;28;20490;-69
2022/11/07 07:43:00;;;;;;;6.07;2.00;;;12.30;84.50;;;;;;5032412;28;20464;-69
2022/11/07 07:45:28;;;;;;;7.47;2.20;;;12.30;84.40;;;;;;5024195;28;20543;-69
2022/11/07 07:48:01;;;;;;;8.73;2.60;;;12.30;84.40;;;;;;5026088;28;20816;-69
2022/11/07 07:50:29;;;;;;;6.07;1.70;;;12.30;84.50;;;;;;5032439;28;20464;-68
2022/11/07 07:52:57;;;;;;;7.70;1.63;;;12.40;84.50;;;;;;5028424;28;20450;-68
2022/11/07 07:55:25;;;;;;;5.90;2.10;;;12.40;84.30;;;;;;5024867;28;20558;-69
2022/11/07 07:57:53;;;;;;;8.80;1.77;;;12.40;84.20;;;;;;5029662;28;20491;-68
2022/11/07 08:00:22;;;;;;;7.00;2.00;;;12.50;84.10;;;;;;5027852;28;20456;-69
2022/11/07 08:02:50;;;;;;;10.20;1.77;;;12.50;84.00;;;;;;5025422;28;20450;-69
2022/11/07 08:05:18;;;;;;;5.97;1.67;;;12.50;84.00;;;;;;5028365;28;20859;-70
2022/11/07 08:07:48;;;;;;;11.80;2.20;;;12.60;84.00;;;;;;5023384;28;20463;-68
2022/11/07 08:10:18;;;;;;;6.10;1.83;;;12.70;83.90;;;;;;5026922;28;20456;-68
2022/11/07 08:13:06;;;;;;;8.17;1.80;;;12.70;83.80;;;;;;5031942;28;20467;-68
2022/11/07 08:15:35;;;;;;;9.53;2.00;;;12.70;83.80;;;;;;5027810;28;20512;-68
2022/11/07 08:18:04;;;;;;;9.17;1.90;;;12.70;83.60;;;;;;5027877;28;20853;-67
2022/11/07 08:20:32;;;;;;;8.17;2.30;;;12.70;83.50;;;;;;5023967;28;20456;-69
2022/11/07 08:23:01;;;;;;;6.23;1.90;;;12.80;83.50;;;;;;5022208;28;20553;-68
2022/11/07 08:25:29;;;;;;;8.60;1.53;;;12.80;83.40;;;;;;5023861;28;20534;-68
2022/11/07 08:27:57;;;;;;;5.80;2.00;;;12.80;83.40;;;;;;5027298;28;20444;-69
2022/11/07 08:30:27;;;;;;;8.10;2.10;;;12.80;83.40;;;;;;5027833;28;20444;-69
2022/11/07 08:32:59;;;;;;;11.13;1.90;;;12.80;83.50;;;;;;5021852;28;21023;-68
2022/11/07 08:35:27;;;;;;;9.23;2.57;;;12.80;83.50;;;;;;5033805;28;20529;-68
2022/11/07 08:37:55;;;;;;;8.30;1.80;;;12.80;83.40;;;;;;5022971;28;20480;-68
2022/11/07 08:40:23;;;;;;;10.00;2.27;;;12.80;83.40;;;;;;5025480;28;20452;-69
2022/11/07 08:42:51;;;;;;;12.50;1.77;;;12.90;83.40;;;;;;5027233;28;20462;-69
2022/11/07 08:45:19;;;;;;;8.10;1.60;;;12.90;83.30;;;;;;5008533;28;20535;-67
2022/11/07 08:47:47;;;;;;;7.83;2.00;;;13.00;83.30;;;;;;5013542;28;20453;-67
2022/11/07 08:50:17;;;;;;;7.40;1.70;;;13.00;83.30;;;;;;5024613;28;20459;-68
2022/11/07 08:52:45;;;;;;;9.10;2.10;;;13.00;83.10;;;;;;5026860;28;20466;-68
2022/11/07 08:55:13;;;;;;;6.33;2.10;;;13.10;83.00;;;;;;5027646;28;21071;-68
2022/11/07 08:57:41;;;;;;;9.67;2.20;;;13.10;83.00;;;;;;5025942;28;20477;-68
2022/11/07 09:00:10;;;;;;;11.03;2.10;;;13.10;83.10;;;;;;5021320;28;20873;-67
2022/11/07 09:02:38;;;;;;;10.83;2.27;;;13.10;83.00;;;;;;5022407;28;20530;-67
2022/11/07 09:05:27;;;;;;;8.33;1.97;;;13.10;83.00;;;;;;5026340;28;20920;-67
2022/11/07 09:07:55;;;;;;;10.57;2.30;;;13.20;83.00;;;;;;5026760;28;20497;-68
2022/11/07 09:10:23;;;;;;;7.20;1.87;;;13.20;83.10;;;;;;5029133;28;20460;-68
2022/11/07 09:12:52;;;;;;;7.97;1.90;;;13.20;83.00;;;;;;5026740;28;20456;-68
2022/11/07 09:15:20;;;;;;;11.07;2.27;;;13.20;83.10;;;;;;5026921;28;20472;-68
2022/11/07 09:17:50;;;;;;;7.67;2.00;;;13.30;83.10;;;;;;5029299;28;21034;-67
2022/11/07 09:20:18;;;;;;;7.03;2.10;;;13.30;83.00;;;;;;5027612;28;20467;-68
2022/11/07 09:22:48;;;;;;;8.83;1.90;;;13.30;83.00;;;;;;5019538;28;20462;-68
2022/11/07 09:25:18;;;;;;;10.37;2.83;;;13.30;82.90;;;;;;5028684;28;21172;-69
2022/11/07 09:27:46;;;;;;;13.83;2.43;;;13.40;82.60;;;;;;5025896;28;20450;-69
2022/11/07 09:30:14;;;;;;;11.70;2.87;;;13.40;82.60;;;;;;5027412;28;20465;-68
2022/11/07 09:32:42;;;;;;;5.50;1.53;;;13.30;82.60;;;;;;5029583;28;21027;-68
2022/11/07 09:35:13;;;;;;;7.17;2.10;;;13.30;82.60;;;;;;5026073;28;20475;-68
2022/11/07 09:37:41;;;;;;;10.77;2.00;;;13.30;82.60;;;;;;5025979;28;20506;-67
2022/11/07 09:40:23;;;;;;;8.57;2.50;;;13.30;82.60;;;;;;5025859;28;20474;-67
2022/11/07 09:43:02;;;;;;;9.83;2.40;;;13.30;82.70;;;;;;5031268;28;20463;-67
2022/11/07 09:45:41;;;;;;;13.40;2.30;;;13.30;82.70;;;;;;5025364;28;20490;-67
2022/11/07 09:48:18;;;;;;;9.13;2.10;;;13.30;82.60;;;;;;5024935;28;20467;-67
2022/11/07 09:50:48;;;;;;;7.33;1.80;;;13.30;82.60;;;;;;5023998;28;20514;-66
2022/11/07 09:53:22;;;;;;;13.20;2.20;;;13.40;82.60;;;;;;5024695;28;20453;-68
2022/11/07 09:55:55;;;;;;;5.80;1.60;;;13.40;82.60;;;;;;5023888;28;20471;-67
2022/11/07 09:58:29;;;;;;;9.23;2.60;;;13.40;82.60;;;;;;5027025;28;20483;-67
2022/11/07 10:01:00;;;;;;;7.70;2.23;;;13.40;82.60;;;;;;5027191;28;21266;-68
2022/11/07 10:03:29;;;;;;;9.10;2.00;;;13.40;82.60;;;;;;5031492;28;20473;-67
2022/11/07 10:06:04;;;;;;;8.93;2.20;;;13.50;82.40;;;;;;5025632;28;21049;-67
2022/11/07 10:08:40;;;;;;;12.60;1.97;;;13.50;82.50;;;;;;5025928;28;20452;-69
2022/11/07 10:11:14;;;;;;;8.40;2.50;;;13.50;82.50;;;;;;5026797;28;20477;-68
2022/11/07 10:13:59;;;;;;;9.23;1.97;;;13.60;82.60;;;;;;5025571;28;20456;-68
2022/11/07 10:16:39;;;;;;;6.87;2.47;;;13.70;82.40;;;;;;5028458;28;20486;-70
2022/11/07 10:19:21;;;;;;;11.83;2.20;;;13.70;82.30;;;;;;5024791;28;20497;-68
2022/11/07 10:22:02;;;;;;;11.73;2.40;;;13.70;82.20;;;;;;5025585;28;20453;-68
2022/11/07 10:24:45;;;;;;;7.07;1.70;;;13.70;82.20;;;;;;5027145;28;20497;-68
2022/11/07 10:27:14;;;;;;;12.17;1.90;;;13.70;82.10;;;;;;5022336;28;20461;-68
2022/11/07 10:29:47;;;;;;;14.57;1.73;;;13.80;82.10;;;;;;5027663;28;20989;-68
2022/11/07 10:32:22;;;;;;;8.80;1.83;;;13.80;82.10;;;;;;5025549;28;20464;-68
2022/11/07 10:34:57;;;;;;;9.07;2.03;;;13.80;82.00;;;;;;5023016;28;20987;-68
2022/11/07 10:37:25;;;;;;;12.70;2.30;;;13.80;81.90;;;;;;5022568;28;20897;-68
2022/11/07 10:39:53;;;;;;;13.10;2.73;;;13.80;81.70;;;;;;5026712;28;20479;-68
2022/11/07 10:42:25;;;;;;;8.33;1.87;;;13.80;81.70;;;;;;5031127;28;20463;-67
2022/11/07 10:44:56;;;;;;;9.33;2.10;;;13.70;81.70;;;;;;5027366;28;21021;-68
2022/11/07 10:47:26;;;;;;;7.30;2.30;;;13.70;81.70;;;;;;5026658;28;20463;-68
2022/11/07 10:49:56;;;;;;;9.37;2.33;;;13.70;81.70;;;;;;5020412;28;20455;-68
2022/11/07 10:52:26;;;;;;;12.47;3.10;;;13.70;81.70;;;;;;5024497;28;20466;-67
2022/11/07 10:55:07;;;;;;;8.83;2.47;;;13.60;81.80;;;;;;5024108;28;20518;-67
2022/11/07 10:57:36;;;;;;;6.97;2.43;;;13.60;81.90;;;;;;5023414;28;20507;-67
2022/11/07 11:00:18;;;;;;;12.43;1.90;;;13.50;82.00;;;;;;5026162;28;21013;-67
2022/11/07 11:02:48;;;;;;;8.10;1.97;;;13.50;82.10;;;;;;5025986;28;20459;-67
2022/11/07 11:05:22;;;;;;;13.03;2.70;;;13.50;82.20;;;;;;5027625;28;20548;-67
2022/11/07 11:07:50;;;;;;;9.10;2.47;;;13.50;82.30;;;;;;5034253;28;20480;-67
2022/11/07 11:10:20;;;;;;;6.27;2.10;;;13.50;82.40;;;;;;5026874;28;20447;-67
2022/11/07 11:12:50;;;;;;;10.10;2.33;;;13.50;82.60;;;;;;5024184;28;20498;-67
2022/11/07 11:15:21;;;;;;;9.73;2.50;;;13.40;82.60;;;;;;5025396;28;20493;-67
2022/11/07 11:18:00;;;;;;;13.47;2.63;;;13.40;82.80;;;;;;5025666;28;20467;-67
2022/11/07 11:20:35;;;;;;;6.37;1.73;;;13.40;82.90;;;;;;5033353;28;20475;-67
2022/11/07 11:23:06;;;;;;;7.33;2.80;;;13.40;83.10;;;;;;5027188;28;20467;-67
2022/11/07 11:25:44;;;;;;;12.10;2.30;;;13.40;83.20;;;;;;5025800;28;20581;-67
2022/11/07 11:28:22;;;;;;;11.10;2.77;;;13.40;83.30;;;;;;5029202;28;20454;-67
2022/11/07 11:30:56;;;;;;;9.30;2.27;;;13.40;83.40;;;;;;5027176;28;20458;-67
2022/11/07 11:33:30;;;;;;;8.23;2.63;;;13.40;83.70;;;;;;5028395;28;20459;-68
2022/11/07 11:36:03;;;;;;;7.47;2.30;;;13.50;83.60;;;;;;5031081;28;20486;-67
2022/11/07 11:38:36;;;;;;;7.03;2.17;;;13.50;83.60;;;;;;5035226;28;20463;-68
2022/11/07 11:41:13;;;;;;;7.57;2.10;;;13.50;83.70;;;;;;5026153;28;20484;-68
2022/11/07 11:43:48;;;;;;;11.00;2.63;;;13.50;83.80;;;;;;5028307;28;20471;-68
2022/11/07 11:46:25;;;;;;;5.10;1.80;;;13.50;83.80;;;;;;5027020;28;20984;-69
2022/11/07 11:48:59;;;;;;;8.00;2.70;;;13.60;83.80;;;;;;5027716;28;20973;-68
2022/11/07 11:51:38;;;;;;;6.30;2.10;;;13.60;83.80;;;;;;5026381;28;20460;-67
2022/11/07 11:54:09;;;;;;;13.03;2.10;;;13.60;83.90;;;;;;5027138;28;20452;-68
2022/11/07 11:56:49;;;;;;;7.70;2.03;;;13.70;83.80;;;;;;5014731;28;21024;-68
2022/11/07 11:59:49;;;;;;;7.37;2.40;;;13.70;84.00;;;;;;5028559;28;20487;-68
2022/11/07 12:02:45;;;;;;;6.50;1.93;;;13.70;84.00;;;;;;5025059;28;20464;-68
2022/11/07 12:05:33;;;;;;;6.83;1.83;;;13.70;84.00;;;;;;5029907;28;21313;-68
2022/11/07 12:08:16;;;;;;;8.03;2.03;;;13.70;84.00;;;;;;5030017;28;20464;-68
2022/11/07 12:10:52;;;;;;;7.47;1.90;;;13.80;83.90;;;;;;5029964;28;20513;-68
2022/11/07 12:13:28;;;;;;;6.80;2.47;;;13.80;83.80;;;;;;5030398;28;20520;-68
2022/11/07 12:16:08;;;;;;;8.67;2.50;;;13.80;83.90;;;;;;5024274;28;20545;-68
2022/11/07 12:18:43;;;;;;;5.30;1.33;;;13.80;83.90;;;;;;5023456;28;20452;-68
2022/11/07 12:21:23;;;;;;;6.10;1.90;;;13.80;83.80;;;;;;5024843;28;20451;-68
2022/11/07 12:24:06;;;;;;;7.43;1.70;;;13.80;83.80;;;;;;5025318;28;20463;-68
2022/11/07 12:26:37;;;;;;;12.97;2.80;;;13.90;83.80;;;;;;5023634;28;20475;-68
2022/11/07 12:29:15;;;;;;;6.67;1.80;;;13.90;83.80;;;;;;5025728;28;20460;-67
2022/11/07 12:31:58;;;;;;;8.90;1.90;;;13.80;83.80;;;;;;5022113;28;21063;-67
2022/11/07 12:34:40;;;;;;;5.53;1.73;;;13.90;83.70;;;;;;5024624;28;20455;-67
2022/11/07 12:37:26;;;;;;;8.90;1.97;;;13.90;83.50;;;;;;5023180;28;20460;-67
2022/11/07 12:40:05;;;;;;;10.40;1.40;;;13.90;83.60;;;;;;5024366;28;20482;-67
2022/11/07 12:42:45;;;;;;;7.77;2.33;;;13.90;83.60;;;;;;5024108;28;21177;-67
2022/11/07 12:45:21;;;;;;;6.10;1.87;;;13.90;83.50;;;;;;5028071;28;20929;-68
2022/11/07 12:48:18;;;;;;;8.60;1.90;;;13.90;83.50;;;;;;5026845;28;20462;-67
2022/11/07 12:50:58;;;;;;;5.57;2.00;;;13.90;83.40;;;;;;5023824;28;20454;-67
2022/11/07 12:53:37;;;;;;;5.63;1.70;;;13.90;83.40;;;;;;5026099;28;20455;-66
2022/11/07 12:56:11;;;;;;;7.10;2.23;;;13.90;83.50;;;;;;5019846;28;20467;-67
2022/11/07 12:58:41;;;;;;;10.23;2.10;;;13.90;83.40;;;;;;5025969;28;20831;-67
2022/11/07 13:01:12;;;;;;;11.80;2.50;;;13.90;83.40;;;;;;5027979;28;20473;-67
2022/11/07 13:03:55;;;;;;;6.90;2.00;;;13.90;83.40;;;;;;5029661;28;20484;-67
2022/11/07 13:06:30;;;;;;;8.43;1.83;;;13.90;83.40;;;;;;5027696;28;20820;-66
2022/11/07 13:09:09;;;;;;;7.67;2.00;;;13.90;83.40;;;;;;5024745;28;20498;-66
2022/11/07 13:11:43;;;;;;;7.87;2.03;;;13.90;83.30;;;;;;5023703;28;20456;-66
2022/11/07 13:14:27;;;;;;;8.43;2.33;;;13.90;83.20;;;;;;5028884;28;20451;-68
2022/11/07 13:17:11;;;;;;;9.40;2.20;;;13.90;83.20;;;;;;5021699;28;20452;-68